sensor_id;sensor_type;location;lat;lon;timestamp;P1;durP1;ratioP1;P2;durP2;ratioP2
76202;SDS011;64985;46.364;17.008;2022-12-10T00:03:01;51.10;;;28.35;;
76202;SDS011;64985;46.364;17.008;2022-12-10T00:06:05;57.08;;;28.85;;
76202;SDS011;64985;46.364;17.008;2022-12-10T00:09:10;57.67;;;29.63;;
76202;SDS011;64985;46.364;17.008;2022-12-10T00:12:14;54.65;;;28.83;;
76202;SDS011;64985;46.364;17.008;2022-12-10T00:15:16;55.80;;;28.55;;
76202;SDS011;64985;46.364;17.008;2022-12-10T00:18:18;58.50;;;29.15;;
76202;SDS011;64985;46.364;17.008;2022-12-10T00:21:22;56.50;;;27.00;;
76202;SDS011;64985;46.364;17.008;2022-12-10T00:24:26;55.95;;;28.50;;
76202;SDS011;64985;46.364;17.008;2022-12-10T00:27:28;59.33;;;27.63;;
76202;SDS011;64985;46.364;17.008;2022-12-10T00:30:32;51.30;;;26.67;;
76202;SDS011;64985;46.364;17.008;2022-12-10T00:33:35;51.28;;;26.65;;
76202;SDS011;64985;46.364;17.008;2022-12-10T00:36:39;50.05;;;25.92;;
76202;SDS011;64985;46.364;17.008;2022-12-10T00:39:44;46.38;;;23.90;;
76202;SDS011;64985;46.364;17.008;2022-12-10T00:42:46;41.20;;;23.00;;
76202;SDS011;64985;46.364;17.008;2022-12-10T00:45:48;40.28;;;21.80;;
76202;SDS011;64985;46.364;17.008;2022-12-10T00:48:50;35.45;;;19.17;;
76202;SDS011;64985;46.364;17.008;2022-12-10T00:51:52;32.10;;;19.13;;
76202;SDS011;64985;46.364;17.008;2022-12-10T00:54:54;35.85;;;19.80;;
76202;SDS011;64985;46.364;17.008;2022-12-10T00:57:56;34.20;;;19.63;;
76202;SDS011;64985;46.364;17.008;2022-12-10T01:01:12;36.08;;;20.20;;
76202;SDS011;64985;46.364;17.008;2022-12-10T01:04:17;35.33;;;19.38;;
76202;SDS011;64985;46.364;17.008;2022-12-10T01:07:20;37.40;;;19.88;;
76202;SDS011;64985;46.364;17.008;2022-12-10T01:10:22;34.83;;;19.52;;
76202;SDS011;64985;46.364;17.008;2022-12-10T01:13:24;39.00;;;18.85;;
76202;SDS011;64985;46.364;17.008;2022-12-10T01:16:26;33.58;;;18.95;;
76202;SDS011;64985;46.364;17.008;2022-12-10T01:19:29;38.30;;;20.42;;
76202;SDS011;64985;46.364;17.008;2022-12-10T01:22:32;39.55;;;22.02;;
76202;SDS011;64985;46.364;17.008;2022-12-10T01:25:34;41.13;;;21.15;;
76202;SDS011;64985;46.364;17.008;2022-12-10T01:28:37;32.75;;;19.15;;
76202;SDS011;64985;46.364;17.008;2022-12-10T01:31:40;28.63;;;18.02;;
76202;SDS011;64985;46.364;17.008;2022-12-10T01:34:43;31.33;;;19.05;;
76202;SDS011;64985;46.364;17.008;2022-12-10T01:37:45;31.40;;;19.23;;
76202;SDS011;64985;46.364;17.008;2022-12-10T01:40:47;31.15;;;18.45;;
76202;SDS011;64985;46.364;17.008;2022-12-10T01:46:55;30.35;;;17.33;;
76202;SDS011;64985;46.364;17.008;2022-12-10T01:49:59;30.38;;;18.17;;
76202;SDS011;64985;46.364;17.008;2022-12-10T01:53:02;30.08;;;17.60;;
76202;SDS011;64985;46.364;17.008;2022-12-10T01:56:04;33.95;;;18.80;;
76202;SDS011;64985;46.364;17.008;2022-12-10T01:59:07;38.75;;;19.10;;
76202;SDS011;64985;46.364;17.008;2022-12-10T02:02:46;40.38;;;19.95;;
76202;SDS011;64985;46.364;17.008;2022-12-10T02:05:47;42.97;;;20.13;;
76202;SDS011;64985;46.364;17.008;2022-12-10T02:12:16;40.17;;;19.35;;
76202;SDS011;64985;46.364;17.008;2022-12-10T02:18:30;38.05;;;18.80;;
76202;SDS011;64985;46.364;17.008;2022-12-10T02:21:34;35.03;;;19.45;;
76202;SDS011;64985;46.364;17.008;2022-12-10T02:24:39;37.72;;;19.15;;
76202;SDS011;64985;46.364;17.008;2022-12-10T02:27:52;32.53;;;18.30;;
76202;SDS011;64985;46.364;17.008;2022-12-10T02:31:15;30.38;;;18.27;;
76202;SDS011;64985;46.364;17.008;2022-12-10T02:34:20;34.50;;;18.88;;
76202;SDS011;64985;46.364;17.008;2022-12-10T02:37:32;29.88;;;18.30;;
76202;SDS011;64985;46.364;17.008;2022-12-10T02:40:38;33.42;;;18.73;;
76202;SDS011;64985;46.364;17.008;2022-12-10T02:43:45;30.17;;;18.10;;
76202;SDS011;64985;46.364;17.008;2022-12-10T02:46:50;32.83;;;18.00;;
76202;SDS011;64985;46.364;17.008;2022-12-10T02:49:55;32.08;;;17.83;;
76202;SDS011;64985;46.364;17.008;2022-12-10T02:52:59;29.50;;;17.05;;
76202;SDS011;64985;46.364;17.008;2022-12-10T02:59:24;29.83;;;17.05;;
76202;SDS011;64985;46.364;17.008;2022-12-10T03:09:29;31.20;;;17.02;;
76202;SDS011;64985;46.364;17.008;2022-12-10T03:12:42;30.02;;;17.23;;
76202;SDS011;64985;46.364;17.008;2022-12-10T03:15:50;25.90;;;15.13;;
76202;SDS011;64985;46.364;17.008;2022-12-10T03:18:56;28.25;;;16.05;;
76202;SDS011;64985;46.364;17.008;2022-12-10T03:22:02;26.25;;;15.48;;
76202;SDS011;64985;46.364;17.008;2022-12-10T03:25:07;24.33;;;13.57;;
76202;SDS011;64985;46.364;17.008;2022-12-10T03:28:11;22.58;;;13.60;;
76202;SDS011;64985;46.364;17.008;2022-12-10T03:31:14;22.15;;;12.38;;
76202;SDS011;64985;46.364;17.008;2022-12-10T03:34:18;22.25;;;13.40;;
76202;SDS011;64985;46.364;17.008;2022-12-10T03:37:20;18.02;;;11.15;;
76202;SDS011;64985;46.364;17.008;2022-12-10T03:40:24;18.90;;;11.25;;
76202;SDS011;64985;46.364;17.008;2022-12-10T03:43:26;14.95;;;9.68;;
76202;SDS011;64985;46.364;17.008;2022-12-10T03:46:29;15.98;;;8.93;;
76202;SDS011;64985;46.364;17.008;2022-12-10T03:49:32;13.55;;;9.05;;
76202;SDS011;64985;46.364;17.008;2022-12-10T03:52:34;13.68;;;8.15;;
76202;SDS011;64985;46.364;17.008;2022-12-10T03:55:36;13.27;;;8.55;;
76202;SDS011;64985;46.364;17.008;2022-12-10T03:58:39;11.85;;;8.05;;
76202;SDS011;64985;46.364;17.008;2022-12-10T04:01:41;11.93;;;7.18;;
76202;SDS011;64985;46.364;17.008;2022-12-10T04:04:43;10.93;;;6.97;;
76202;SDS011;64985;46.364;17.008;2022-12-10T04:07:45;10.55;;;7.32;;
76202;SDS011;64985;46.364;17.008;2022-12-10T04:10:47;12.45;;;7.60;;
76202;SDS011;64985;46.364;17.008;2022-12-10T04:13:50;13.05;;;7.50;;
76202;SDS011;64985;46.364;17.008;2022-12-10T04:17:11;11.32;;;7.68;;
76202;SDS011;64985;46.364;17.008;2022-12-10T04:20:13;11.52;;;7.20;;
76202;SDS011;64985;46.364;17.008;2022-12-10T04:23:34;11.98;;;7.45;;
76202;SDS011;64985;46.364;17.008;2022-12-10T04:26:55;9.35;;;6.45;;
76202;SDS011;64985;46.364;17.008;2022-12-10T04:29:59;9.75;;;6.55;;
76202;SDS011;64985;46.364;17.008;2022-12-10T04:33:02;9.73;;;6.30;;
76202;SDS011;64985;46.364;17.008;2022-12-10T04:36:04;9.77;;;6.68;;
76202;SDS011;64985;46.364;17.008;2022-12-10T04:39:07;9.90;;;6.60;;
76202;SDS011;64985;46.364;17.008;2022-12-10T04:42:09;9.60;;;6.22;;
76202;SDS011;64985;46.364;17.008;2022-12-10T04:45:12;10.43;;;6.43;;
76202;SDS011;64985;46.364;17.008;2022-12-10T04:48:14;8.60;;;5.75;;
76202;SDS011;64985;46.364;17.008;2022-12-10T04:51:16;8.38;;;6.05;;
76202;SDS011;64985;46.364;17.008;2022-12-10T04:54:18;10.15;;;6.40;;
76202;SDS011;64985;46.364;17.008;2022-12-10T04:57:21;9.13;;;6.03;;
76202;SDS011;64985;46.364;17.008;2022-12-10T05:00:24;8.88;;;5.95;;
76202;SDS011;64985;46.364;17.008;2022-12-10T05:03:26;8.32;;;5.88;;
76202;SDS011;64985;46.364;17.008;2022-12-10T05:06:28;8.02;;;5.85;;
76202;SDS011;64985;46.364;17.008;2022-12-10T05:09:30;9.25;;;6.00;;
76202;SDS011;64985;46.364;17.008;2022-12-10T05:12:33;7.80;;;5.88;;
76202;SDS011;64985;46.364;17.008;2022-12-10T05:15:37;8.73;;;6.00;;
76202;SDS011;64985;46.364;17.008;2022-12-10T05:18:40;10.90;;;6.80;;
76202;SDS011;64985;46.364;17.008;2022-12-10T05:21:42;8.70;;;5.85;;
76202;SDS011;64985;46.364;17.008;2022-12-10T05:25:03;10.57;;;6.97;;
76202;SDS011;64985;46.364;17.008;2022-12-10T05:28:05;10.48;;;6.53;;
76202;SDS011;64985;46.364;17.008;2022-12-10T05:34:16;10.70;;;6.97;;
76202;SDS011;64985;46.364;17.008;2022-12-10T05:37:18;11.82;;;7.15;;
76202;SDS011;64985;46.364;17.008;2022-12-10T05:40:20;10.50;;;6.95;;
76202;SDS011;64985;46.364;17.008;2022-12-10T05:43:22;12.68;;;7.78;;
76202;SDS011;64985;46.364;17.008;2022-12-10T05:46:26;12.65;;;7.82;;
76202;SDS011;64985;46.364;17.008;2022-12-10T05:49:30;16.95;;;9.48;;
76202;SDS011;64985;46.364;17.008;2022-12-10T05:52:32;15.00;;;8.88;;
76202;SDS011;64985;46.364;17.008;2022-12-10T05:55:34;17.15;;;10.45;;
76202;SDS011;64985;46.364;17.008;2022-12-10T05:58:37;18.80;;;10.95;;
76202;SDS011;64985;46.364;17.008;2022-12-10T06:01:40;22.00;;;12.35;;
76202;SDS011;64985;46.364;17.008;2022-12-10T06:04:42;15.77;;;10.13;;
76202;SDS011;64985;46.364;17.008;2022-12-10T06:07:44;15.05;;;9.65;;
76202;SDS011;64985;46.364;17.008;2022-12-10T06:10:47;15.63;;;9.27;;
76202;SDS011;64985;46.364;17.008;2022-12-10T06:13:49;16.42;;;9.68;;
76202;SDS011;64985;46.364;17.008;2022-12-10T06:16:56;14.52;;;10.02;;
76202;SDS011;64985;46.364;17.008;2022-12-10T06:19:59;16.83;;;10.70;;
76202;SDS011;64985;46.364;17.008;2022-12-10T06:23:01;17.05;;;11.02;;
76202;SDS011;64985;46.364;17.008;2022-12-10T06:26:04;17.05;;;11.15;;
76202;SDS011;64985;46.364;17.008;2022-12-10T06:29:08;19.08;;;11.18;;
76202;SDS011;64985;46.364;17.008;2022-12-10T06:32:10;19.40;;;11.98;;
76202;SDS011;64985;46.364;17.008;2022-12-10T06:35:12;18.50;;;12.05;;
76202;SDS011;64985;46.364;17.008;2022-12-10T06:38:14;18.08;;;12.00;;
76202;SDS011;64985;46.364;17.008;2022-12-10T06:41:17;22.23;;;13.82;;
76202;SDS011;64985;46.364;17.008;2022-12-10T06:44:21;20.50;;;12.57;;
76202;SDS011;64985;46.364;17.008;2022-12-10T06:47:23;21.33;;;11.93;;
76202;SDS011;64985;46.364;17.008;2022-12-10T06:50:25;22.67;;;13.13;;
76202;SDS011;64985;46.364;17.008;2022-12-10T06:53:27;20.15;;;12.02;;
76202;SDS011;64985;46.364;17.008;2022-12-10T06:56:29;18.23;;;11.57;;
76202;SDS011;64985;46.364;17.008;2022-12-10T06:59:32;20.15;;;12.60;;
76202;SDS011;64985;46.364;17.008;2022-12-10T07:02:34;20.88;;;12.68;;
76202;SDS011;64985;46.364;17.008;2022-12-10T07:05:37;22.75;;;14.70;;
76202;SDS011;64985;46.364;17.008;2022-12-10T07:08:39;20.08;;;12.55;;
76202;SDS011;64985;46.364;17.008;2022-12-10T07:11:41;22.95;;;13.82;;
76202;SDS011;64985;46.364;17.008;2022-12-10T07:14:43;20.55;;;13.00;;
76202;SDS011;64985;46.364;17.008;2022-12-10T07:17:45;21.35;;;12.70;;
76202;SDS011;64985;46.364;17.008;2022-12-10T07:20:47;22.45;;;13.65;;
76202;SDS011;64985;46.364;17.008;2022-12-10T07:23:53;22.60;;;13.90;;
76202;SDS011;64985;46.364;17.008;2022-12-10T07:26:59;22.05;;;13.55;;
76202;SDS011;64985;46.364;17.008;2022-12-10T07:30:01;21.63;;;13.13;;
76202;SDS011;64985;46.364;17.008;2022-12-10T07:33:03;22.00;;;13.82;;
76202;SDS011;64985;46.364;17.008;2022-12-10T07:36:06;20.98;;;13.20;;
76202;SDS011;64985;46.364;17.008;2022-12-10T07:39:09;23.40;;;14.60;;
76202;SDS011;64985;46.364;17.008;2022-12-10T07:42:18;21.90;;;13.35;;
76202;SDS011;64985;46.364;17.008;2022-12-10T07:45:20;24.23;;;14.30;;
76202;SDS011;64985;46.364;17.008;2022-12-10T07:48:23;23.58;;;14.63;;
76202;SDS011;64985;46.364;17.008;2022-12-10T07:51:25;22.73;;;14.32;;
76202;SDS011;64985;46.364;17.008;2022-12-10T07:54:27;21.85;;;14.05;;
76202;SDS011;64985;46.364;17.008;2022-12-10T07:57:30;23.70;;;14.52;;
76202;SDS011;64985;46.364;17.008;2022-12-10T08:00:33;25.15;;;14.45;;
76202;SDS011;64985;46.364;17.008;2022-12-10T08:03:35;22.60;;;14.00;;
76202;SDS011;64985;46.364;17.008;2022-12-10T08:06:38;24.83;;;14.95;;
76202;SDS011;64985;46.364;17.008;2022-12-10T08:09:40;23.27;;;14.15;;
76202;SDS011;64985;46.364;17.008;2022-12-10T08:12:42;25.65;;;15.30;;
76202;SDS011;64985;46.364;17.008;2022-12-10T08:15:44;23.33;;;14.05;;
76202;SDS011;64985;46.364;17.008;2022-12-10T08:18:46;25.92;;;15.25;;
76202;SDS011;64985;46.364;17.008;2022-12-10T08:21:48;25.75;;;15.60;;
76202;SDS011;64985;46.364;17.008;2022-12-10T08:24:50;30.27;;;17.10;;
76202;SDS011;64985;46.364;17.008;2022-12-10T08:27:52;29.02;;;17.10;;
76202;SDS011;64985;46.364;17.008;2022-12-10T08:30:55;28.85;;;17.08;;
76202;SDS011;64985;46.364;17.008;2022-12-10T08:33:57;29.67;;;17.52;;
76202;SDS011;64985;46.364;17.008;2022-12-10T08:36:59;26.83;;;16.33;;
76202;SDS011;64985;46.364;17.008;2022-12-10T08:40:01;28.65;;;17.52;;
76202;SDS011;64985;46.364;17.008;2022-12-10T08:43:03;28.55;;;17.73;;
76202;SDS011;64985;46.364;17.008;2022-12-10T08:46:06;27.92;;;17.10;;
76202;SDS011;64985;46.364;17.008;2022-12-10T08:49:09;28.33;;;17.50;;
76202;SDS011;64985;46.364;17.008;2022-12-10T08:52:11;27.55;;;15.90;;
76202;SDS011;64985;46.364;17.008;2022-12-10T08:55:13;26.92;;;16.70;;
76202;SDS011;64985;46.364;17.008;2022-12-10T08:58:15;28.05;;;17.40;;
76202;SDS011;64985;46.364;17.008;2022-12-10T09:01:18;27.15;;;16.65;;
76202;SDS011;64985;46.364;17.008;2022-12-10T09:04:20;27.50;;;16.60;;
76202;SDS011;64985;46.364;17.008;2022-12-10T09:07:22;30.17;;;18.45;;
76202;SDS011;64985;46.364;17.008;2022-12-10T09:10:24;31.13;;;18.75;;
76202;SDS011;64985;46.364;17.008;2022-12-10T09:13:26;27.48;;;17.10;;
76202;SDS011;64985;46.364;17.008;2022-12-10T09:16:29;30.58;;;18.27;;
76202;SDS011;64985;46.364;17.008;2022-12-10T09:19:33;31.73;;;18.27;;
76202;SDS011;64985;46.364;17.008;2022-12-10T09:22:35;34.42;;;20.05;;
76202;SDS011;64985;46.364;17.008;2022-12-10T09:25:38;33.65;;;19.67;;
76202;SDS011;64985;46.364;17.008;2022-12-10T09:28:40;32.72;;;19.27;;
76202;SDS011;64985;46.364;17.008;2022-12-10T09:31:43;31.88;;;19.17;;
76202;SDS011;64985;46.364;17.008;2022-12-10T09:34:45;35.08;;;20.63;;
76202;SDS011;64985;46.364;17.008;2022-12-10T09:37:47;36.42;;;21.73;;
76202;SDS011;64985;46.364;17.008;2022-12-10T09:47:18;34.35;;;20.88;;
76202;SDS011;64985;46.364;17.008;2022-12-10T09:50:44;39.00;;;21.98;;
76202;SDS011;64985;46.364;17.008;2022-12-10T09:53:53;36.38;;;21.05;;
76202;SDS011;64985;46.364;17.008;2022-12-10T09:57:00;36.25;;;20.48;;
76202;SDS011;64985;46.364;17.008;2022-12-10T10:00:09;38.50;;;22.38;;
76202;SDS011;64985;46.364;17.008;2022-12-10T10:03:26;43.20;;;23.73;;
76202;SDS011;64985;46.364;17.008;2022-12-10T10:06:32;44.78;;;25.15;;
76202;SDS011;64985;46.364;17.008;2022-12-10T10:09:36;46.05;;;25.50;;
76202;SDS011;64985;46.364;17.008;2022-12-10T10:12:41;42.97;;;24.75;;
76202;SDS011;64985;46.364;17.008;2022-12-10T10:15:44;61.88;;;33.08;;
76202;SDS011;64985;46.364;17.008;2022-12-10T10:18:55;53.80;;;29.20;;
76202;SDS011;64985;46.364;17.008;2022-12-10T10:22:03;60.05;;;30.88;;
76202;SDS011;64985;46.364;17.008;2022-12-10T10:25:08;56.00;;;29.80;;
76202;SDS011;64985;46.364;17.008;2022-12-10T10:28:20;57.92;;;28.40;;
76202;SDS011;64985;46.364;17.008;2022-12-10T10:31:25;66.55;;;31.38;;
76202;SDS011;64985;46.364;17.008;2022-12-10T10:34:29;57.05;;;28.45;;
76202;SDS011;64985;46.364;17.008;2022-12-10T10:37:39;61.58;;;30.52;;
76202;SDS011;64985;46.364;17.008;2022-12-10T10:40:43;50.55;;;25.48;;
76202;SDS011;64985;46.364;17.008;2022-12-10T10:43:47;49.00;;;26.58;;
76202;SDS011;64985;46.364;17.008;2022-12-10T10:46:59;47.25;;;25.23;;
76202;SDS011;64985;46.364;17.008;2022-12-10T10:50:02;48.50;;;25.80;;
76202;SDS011;64985;46.364;17.008;2022-12-10T10:53:22;46.47;;;24.90;;
76202;SDS011;64985;46.364;17.008;2022-12-10T10:59:31;51.55;;;28.00;;
76202;SDS011;64985;46.364;17.008;2022-12-10T11:02:37;48.65;;;27.23;;
76202;SDS011;64985;46.364;17.008;2022-12-10T11:05:43;45.58;;;24.83;;
76202;SDS011;64985;46.364;17.008;2022-12-10T11:08:48;49.65;;;25.52;;
76202;SDS011;64985;46.364;17.008;2022-12-10T11:12:00;48.97;;;26.55;;
76202;SDS011;64985;46.364;17.008;2022-12-10T11:15:53;66.78;;;29.70;;
76202;SDS011;64985;46.364;17.008;2022-12-10T11:18:34;66.85;;;30.67;;
76202;SDS011;64985;46.364;17.008;2022-12-10T11:21:38;62.58;;;30.40;;
76202;SDS011;64985;46.364;17.008;2022-12-10T11:24:40;69.80;;;30.75;;
76202;SDS011;64985;46.364;17.008;2022-12-10T11:31:27;64.07;;;31.77;;
76202;SDS011;64985;46.364;17.008;2022-12-10T11:41:36;90.18;;;36.05;;
76202;SDS011;64985;46.364;17.008;2022-12-10T11:44:56;68.68;;;31.60;;
76202;SDS011;64985;46.364;17.008;2022-12-10T11:52:05;64.90;;;30.85;;
76202;SDS011;64985;46.364;17.008;2022-12-10T11:59:08;56.45;;;29.08;;
76202;SDS011;64985;46.364;17.008;2022-12-10T12:09:55;57.83;;;29.73;;
76202;SDS011;64985;46.364;17.008;2022-12-10T12:13:04;70.88;;;34.45;;
76202;SDS011;64985;46.364;17.008;2022-12-10T12:16:09;95.57;;;42.38;;
76202;SDS011;64985;46.364;17.008;2022-12-10T12:19:17;72.63;;;34.60;;
76202;SDS011;64985;46.364;17.008;2022-12-10T12:22:34;48.53;;;25.92;;
76202;SDS011;64985;46.364;17.008;2022-12-10T12:25:39;56.80;;;27.55;;
76202;SDS011;64985;46.364;17.008;2022-12-10T12:28:52;57.15;;;27.67;;
76202;SDS011;64985;46.364;17.008;2022-12-10T12:35:24;47.90;;;24.52;;
76202;SDS011;64985;46.364;17.008;2022-12-10T12:39:05;44.05;;;24.33;;
76202;SDS011;64985;46.364;17.008;2022-12-10T12:42:26;50.50;;;25.70;;
76202;SDS011;64985;46.364;17.008;2022-12-10T12:45:51;49.72;;;25.02;;
76202;SDS011;64985;46.364;17.008;2022-12-10T12:49:00;56.97;;;29.13;;
76202;SDS011;64985;46.364;17.008;2022-12-10T12:55:32;44.28;;;24.25;;
76202;SDS011;64985;46.364;17.008;2022-12-10T13:01:51;49.55;;;25.50;;
76202;SDS011;64985;46.364;17.008;2022-12-10T13:04:54;45.80;;;25.17;;
76202;SDS011;64985;46.364;17.008;2022-12-10T13:08:20;46.28;;;25.02;;
76202;SDS011;64985;46.364;17.008;2022-12-10T13:11:28;46.80;;;25.08;;
76202;SDS011;64985;46.364;17.008;2022-12-10T13:14:32;49.58;;;25.77;;
76202;SDS011;64985;46.364;17.008;2022-12-10T13:17:36;45.35;;;24.23;;
76202;SDS011;64985;46.364;17.008;2022-12-10T13:23:48;61.58;;;28.73;;
76202;SDS011;64985;46.364;17.008;2022-12-10T13:33:15;45.30;;;22.70;;
76202;SDS011;64985;46.364;17.008;2022-12-10T13:36:21;48.22;;;24.15;;
76202;SDS011;64985;46.364;17.008;2022-12-10T13:39:32;45.00;;;23.08;;
76202;SDS011;64985;46.364;17.008;2022-12-10T13:42:38;46.88;;;25.02;;
76202;SDS011;64985;46.364;17.008;2022-12-10T13:49:28;48.15;;;25.17;;
76202;SDS011;64985;46.364;17.008;2022-12-10T13:56:10;52.88;;;26.38;;
76202;SDS011;64985;46.364;17.008;2022-12-10T14:09:19;51.03;;;27.08;;
76202;SDS011;64985;46.364;17.008;2022-12-10T14:12:30;52.65;;;26.77;;
76202;SDS011;64985;46.364;17.008;2022-12-10T14:15:35;53.00;;;26.63;;
76202;SDS011;64985;46.364;17.008;2022-12-10T14:18:41;63.85;;;29.02;;
76202;SDS011;64985;46.364;17.008;2022-12-10T14:21:44;54.33;;;28.52;;
76202;SDS011;64985;46.364;17.008;2022-12-10T14:24:49;56.67;;;28.73;;
76202;SDS011;64985;46.364;17.008;2022-12-10T14:27:52;50.92;;;26.70;;
76202;SDS011;64985;46.364;17.008;2022-12-10T14:30:54;47.80;;;25.42;;
76202;SDS011;64985;46.364;17.008;2022-12-10T14:33:59;47.45;;;25.33;;
76202;SDS011;64985;46.364;17.008;2022-12-10T14:37:04;52.33;;;25.85;;
76202;SDS011;64985;46.364;17.008;2022-12-10T14:40:07;51.08;;;25.88;;
76202;SDS011;64985;46.364;17.008;2022-12-10T14:43:12;49.63;;;26.10;;
76202;SDS011;64985;46.364;17.008;2022-12-10T14:46:22;50.95;;;26.00;;
76202;SDS011;64985;46.364;17.008;2022-12-10T14:49:26;47.88;;;24.42;;
76202;SDS011;64985;46.364;17.008;2022-12-10T14:52:32;50.78;;;25.13;;
76202;SDS011;64985;46.364;17.008;2022-12-10T14:55:40;53.78;;;26.55;;
76202;SDS011;64985;46.364;17.008;2022-12-10T14:59:26;50.42;;;24.75;;
76202;SDS011;64985;46.364;17.008;2022-12-10T15:02:18;45.60;;;23.77;;
76202;SDS011;64985;46.364;17.008;2022-12-10T15:05:27;52.15;;;26.25;;
76202;SDS011;64985;46.364;17.008;2022-12-10T15:08:32;54.78;;;26.77;;
76202;SDS011;64985;46.364;17.008;2022-12-10T15:11:35;53.40;;;25.85;;
76202;SDS011;64985;46.364;17.008;2022-12-10T15:14:38;47.35;;;24.27;;
76202;SDS011;64985;46.364;17.008;2022-12-10T15:18:31;48.55;;;24.20;;
76202;SDS011;64985;46.364;17.008;2022-12-10T15:21:21;52.13;;;25.13;;
76202;SDS011;64985;46.364;17.008;2022-12-10T15:24:27;54.58;;;25.10;;
76202;SDS011;64985;46.364;17.008;2022-12-10T15:27:51;49.72;;;24.98;;
76202;SDS011;64985;46.364;17.008;2022-12-10T15:31:09;61.45;;;28.70;;
76202;SDS011;64985;46.364;17.008;2022-12-10T15:34:29;52.17;;;25.27;;
76202;SDS011;64985;46.364;17.008;2022-12-10T15:37:39;56.63;;;26.45;;
76202;SDS011;64985;46.364;17.008;2022-12-10T15:40:43;55.15;;;26.13;;
76202;SDS011;64985;46.364;17.008;2022-12-10T15:44:04;58.45;;;27.75;;
76202;SDS011;64985;46.364;17.008;2022-12-10T15:50:25;58.10;;;26.40;;
76202;SDS011;64985;46.364;17.008;2022-12-10T15:53:34;63.15;;;29.00;;
76202;SDS011;64985;46.364;17.008;2022-12-10T15:56:41;52.38;;;25.17;;
76202;SDS011;64985;46.364;17.008;2022-12-10T15:59:45;53.08;;;25.63;;
76202;SDS011;64985;46.364;17.008;2022-12-10T16:02:58;56.58;;;26.83;;
76202;SDS011;64985;46.364;17.008;2022-12-10T16:06:06;53.28;;;26.08;;
76202;SDS011;64985;46.364;17.008;2022-12-10T16:09:09;58.60;;;27.80;;
76202;SDS011;64985;46.364;17.008;2022-12-10T16:12:12;53.10;;;24.90;;
76202;SDS011;64985;46.364;17.008;2022-12-10T16:15:21;53.25;;;26.45;;
76202;SDS011;64985;46.364;17.008;2022-12-10T16:18:29;55.40;;;25.05;;
76202;SDS011;64985;46.364;17.008;2022-12-10T16:21:35;54.35;;;24.65;;
76202;SDS011;64985;46.364;17.008;2022-12-10T16:24:37;58.38;;;26.50;;
76202;SDS011;64985;46.364;17.008;2022-12-10T16:27:46;52.65;;;24.80;;
76202;SDS011;64985;46.364;17.008;2022-12-10T16:30:50;58.00;;;27.73;;
76202;SDS011;64985;46.364;17.008;2022-12-10T16:33:55;56.05;;;26.27;;
76202;SDS011;64985;46.364;17.008;2022-12-10T16:36:58;54.85;;;26.60;;
76202;SDS011;64985;46.364;17.008;2022-12-10T16:40:02;59.53;;;29.25;;
76202;SDS011;64985;46.364;17.008;2022-12-10T16:43:09;56.72;;;26.83;;
76202;SDS011;64985;46.364;17.008;2022-12-10T16:46:18;52.75;;;26.02;;
76202;SDS011;64985;46.364;17.008;2022-12-10T16:49:22;54.45;;;26.58;;
76202;SDS011;64985;46.364;17.008;2022-12-10T16:52:25;56.90;;;27.55;;
76202;SDS011;64985;46.364;17.008;2022-12-10T16:55:28;55.45;;;27.17;;
76202;SDS011;64985;46.364;17.008;2022-12-10T16:58:30;54.47;;;26.73;;
76202;SDS011;64985;46.364;17.008;2022-12-10T17:01:33;60.17;;;27.63;;
76202;SDS011;64985;46.364;17.008;2022-12-10T17:04:37;59.10;;;30.25;;
76202;SDS011;64985;46.364;17.008;2022-12-10T17:07:39;50.47;;;26.45;;
76202;SDS011;64985;46.364;17.008;2022-12-10T17:10:43;57.00;;;27.58;;
76202;SDS011;64985;46.364;17.008;2022-12-10T17:14:04;58.83;;;28.23;;
76202;SDS011;64985;46.364;17.008;2022-12-10T17:17:08;52.88;;;27.33;;
76202;SDS011;64985;46.364;17.008;2022-12-10T17:20:15;62.05;;;27.83;;
76202;SDS011;64985;46.364;17.008;2022-12-10T17:23:19;54.10;;;24.80;;
76202;SDS011;64985;46.364;17.008;2022-12-10T17:26:26;52.92;;;25.38;;
76202;SDS011;64985;46.364;17.008;2022-12-10T17:29:38;54.28;;;25.73;;
76202;SDS011;64985;46.364;17.008;2022-12-10T17:32:42;52.25;;;24.13;;
76202;SDS011;64985;46.364;17.008;2022-12-10T17:35:45;60.08;;;29.40;;
76202;SDS011;64985;46.364;17.008;2022-12-10T17:38:48;57.28;;;27.88;;
76202;SDS011;64985;46.364;17.008;2022-12-10T17:41:51;54.05;;;27.70;;
76202;SDS011;64985;46.364;17.008;2022-12-10T17:44:54;48.90;;;23.02;;
76202;SDS011;64985;46.364;17.008;2022-12-10T17:47:57;53.80;;;26.45;;
76202;SDS011;64985;46.364;17.008;2022-12-10T17:51:00;54.80;;;28.42;;
76202;SDS011;64985;46.364;17.008;2022-12-10T17:54:02;54.42;;;26.67;;
76202;SDS011;64985;46.364;17.008;2022-12-10T17:57:14;46.97;;;24.63;;
76202;SDS011;64985;46.364;17.008;2022-12-10T18:00:24;55.03;;;26.70;;
76202;SDS011;64985;46.364;17.008;2022-12-10T18:03:29;58.67;;;26.90;;
76202;SDS011;64985;46.364;17.008;2022-12-10T18:06:31;44.78;;;22.60;;
76202;SDS011;64985;46.364;17.008;2022-12-10T18:09:33;48.38;;;23.92;;
76202;SDS011;64985;46.364;17.008;2022-12-10T18:12:35;48.05;;;24.35;;
76202;SDS011;64985;46.364;17.008;2022-12-10T18:15:37;57.40;;;27.08;;
76202;SDS011;64985;46.364;17.008;2022-12-10T18:18:39;52.78;;;25.63;;
76202;SDS011;64985;46.364;17.008;2022-12-10T18:21:43;50.83;;;25.60;;
76202;SDS011;64985;46.364;17.008;2022-12-10T18:24:53;50.22;;;24.63;;
76202;SDS011;64985;46.364;17.008;2022-12-10T18:27:57;49.22;;;23.58;;
76202;SDS011;64985;46.364;17.008;2022-12-10T18:31:08;48.10;;;24.00;;
76202;SDS011;64985;46.364;17.008;2022-12-10T18:34:18;49.33;;;22.95;;
76202;SDS011;64985;46.364;17.008;2022-12-10T18:37:21;47.55;;;23.42;;
76202;SDS011;64985;46.364;17.008;2022-12-10T18:40:24;50.28;;;24.25;;
76202;SDS011;64985;46.364;17.008;2022-12-10T18:43:26;48.03;;;23.73;;
76202;SDS011;64985;46.364;17.008;2022-12-10T18:46:28;53.38;;;24.98;;
76202;SDS011;64985;46.364;17.008;2022-12-10T18:49:33;48.60;;;22.98;;
76202;SDS011;64985;46.364;17.008;2022-12-10T18:52:37;51.78;;;23.77;;
76202;SDS011;64985;46.364;17.008;2022-12-10T18:55:39;48.85;;;24.50;;
76202;SDS011;64985;46.364;17.008;2022-12-10T18:58:52;50.05;;;23.90;;
76202;SDS011;64985;46.364;17.008;2022-12-10T19:01:54;54.15;;;24.98;;
76202;SDS011;64985;46.364;17.008;2022-12-10T19:04:58;54.25;;;25.15;;
76202;SDS011;64985;46.364;17.008;2022-12-10T19:08:03;53.78;;;26.50;;
76202;SDS011;64985;46.364;17.008;2022-12-10T19:11:06;57.75;;;26.05;;
76202;SDS011;64985;46.364;17.008;2022-12-10T19:14:09;58.72;;;26.08;;
76202;SDS011;64985;46.364;17.008;2022-12-10T19:17:12;52.63;;;25.65;;
76202;SDS011;64985;46.364;17.008;2022-12-10T19:20:18;55.30;;;23.75;;
76202;SDS011;64985;46.364;17.008;2022-12-10T19:23:24;53.97;;;25.27;;
76202;SDS011;64985;46.364;17.008;2022-12-10T19:26:28;52.97;;;25.80;;
76202;SDS011;64985;46.364;17.008;2022-12-10T19:29:36;54.63;;;26.40;;
76202;SDS011;64985;46.364;17.008;2022-12-10T19:32:42;58.47;;;25.38;;